Noonday, Texas
Current Conditions -  °F | °C
As of 12:53 PM on Monday 20 Oct 2014 (Local Time) from KTYR Reporting Station
Clear Clear  
Wind Chill: 76°   Ceiling: Unl
Heat Index: 76°   Visibility: 10mi
Dew Point: 56°   Wind: 5mph
Humidity: 50%   Direction: 340°NNW
Pressure: 30.09"   Gusts: NA
Location:  32.2242°N, 95.404°W
Report Text: KTYR 201753Z 34004KT 10SM CLR 24/13 A3009 RMK AO2 SLP183 T02440133 10244 20122 58010
Loading
Personal Weather Stations






























Interactive Weather Map
Tropical Storm Tracking
New forecast layout! Learn more

10-Day Weather Forecast

Advertisements
Track Severe Weather on mobile